الصفحة الرئيسية
METAR-TAF:

METAR-TAF

مطار :

مطار ساموي

جزيرة ساموي, تايلاند

دائرة عرض: 09-32-52N, خط طول: 100-03-44E, ارتفاع: 20 متر

مراقبة الطقس الحالي

تاريخ ووقت الإصدار 22 دقيقة قبل الساعة 02:00UTC
رياح هادئة
درجة الحرارة 29°درجة مئوية
الرطوبة 84%
ضغط 1011 hPa
الرؤية 10 كم أو أكثر
غيوم قليلة على ارتفاع 2000 قدم

METAR: VTSM 040200Z 00000KT 9999 FEW020 29/26 Q1011 NOSIG

زمن: 09:22 (02:22 UTC)

توقعات

تاريخ ووقت الإصدار 3ساعات و 22 دقيقة قبل الساعة 23:00UTC
التوقعات صالحة من04 الساعة 00 UTC إلى 04 الساعة 24 UTC
ريح 8 عقدة من الغرب/الشمال الغربي
الرؤية 10 كم أو أكثر
غيوم قليلة على ارتفاع 2000 قدم
غيوم مفككة على ارتفاع 10000 قدم
مؤقت
من 04 الساعة 07 UTC إلى 04 الساعة 13 UTC
ريح 10 عقدة من الغرب تتزايد حتى 20 عقدة
الرؤية: 5000 متر
غيوم قليلة على ارتفاع 1600 قدم, مزنة ركامية.
غيوم متفرقة على ارتفاع 1800 قدم
غيوم مفككة على ارتفاع 10000 قدم
عاصفة رعدية, مطر

TAF: VTSM 032300Z 0400/0424 30008KT 9999 FEW020 BKN100 TEMPO 0407/0413 27010G20KT 5000 TSRA FEW016CB SCT018 BKN100

أرصاد الطقس والتوقعات من أكثر من 4000 مطار (تقارير الطقس للمطار METAR والتنبؤ بالطقس بالمطارTAF).

المحطات المتاحة هي النقط الصفراء والحمراء على الخريطة.

حرك المؤشر فوق النقطة لمعرفة اسم المحطة.

ثم انقر لمعرفة أرصاد وتوقعات الطقس.

لتغيير الخارطة: اضغط على الأزرار الخضراء مع رمز الصليب الأسود للتكبير. على الزر الأخضر مع شرطة للتصغير، أو على الأسهم الخضراء للخرائط المجاورة.


METAR-TAF: